sensor_id;sensor_type;location;lat;lon;timestamp;pressure;altitude;pressure_sealevel;temperature;humidity
50867;BME280;36839;51.946;21.002;2023-03-21T00:02:05;99995.64;;;7.35;100.00
50867;BME280;36839;51.946;21.002;2023-03-21T00:04:35;99994.13;;;7.33;100.00
50867;BME280;36839;51.946;21.002;2023-03-21T00:07:04;99991.31;;;7.31;100.00
50867;BME280;36839;51.946;21.002;2023-03-21T00:09:32;99993.88;;;7.30;100.00
50867;BME280;36839;51.946;21.002;2023-03-21T00:12:00;99991.58;;;7.28;100.00
50867;BME280;36839;51.946;21.002;2023-03-21T00:14:28;99990.24;;;7.28;100.00
50867;BME280;36839;51.946;21.002;2023-03-21T00:16:57;99985.61;;;7.26;100.00
50867;BME280;36839;51.946;21.002;2023-03-21T00:19:27;99980.17;;;7.25;100.00
50867;BME280;36839;51.946;21.002;2023-03-21T00:21:57;99981.88;;;7.25;100.00
50867;BME280;36839;51.946;21.002;2023-03-21T00:24:29;99982.41;;;7.24;100.00
50867;BME280;36839;51.946;21.002;2023-03-21T00:26:57;99976.03;;;7.23;100.00
50867;BME280;36839;51.946;21.002;2023-03-21T00:29:27;99974.32;;;7.22;100.00
50867;BME280;36839;51.946;21.002;2023-03-21T00:31:55;99976.90;;;7.22;100.00
50867;BME280;36839;51.946;21.002;2023-03-21T00:34:25;99975.64;;;7.21;100.00
50867;BME280;36839;51.946;21.002;2023-03-21T00:36:52;99972.81;;;7.20;100.00
50867;BME280;36839;51.946;21.002;2023-03-21T00:39:20;99971.99;;;7.19;100.00
50867;BME280;36839;51.946;21.002;2023-03-21T00:41:48;99974.75;;;7.19;100.00
50867;BME280;36839;51.946;21.002;2023-03-21T00:44:17;99976.05;;;7.17;100.00
50867;BME280;36839;51.946;21.002;2023-03-21T00:46:44;99974.95;;;7.16;100.00
50867;BME280;36839;51.946;21.002;2023-03-21T00:49:11;99973.89;;;7.15;100.00
50867;BME280;36839;51.946;21.002;2023-03-21T00:51:38;99976.13;;;7.14;100.00
50867;BME280;36839;51.946;21.002;2023-03-21T00:54:08;99978.88;;;7.14;100.00
50867;BME280;36839;51.946;21.002;2023-03-21T00:56:37;99973.98;;;7.14;100.00
50867;BME280;36839;51.946;21.002;2023-03-21T00:59:05;99975.35;;;7.12;100.00
50867;BME280;36839;51.946;21.002;2023-03-21T01:01:32;99975.79;;;7.12;100.00
50867;BME280;36839;51.946;21.002;2023-03-21T01:04:01;99973.62;;;7.11;100.00
50867;BME280;36839;51.946;21.002;2023-03-21T01:06:35;99974.20;;;7.10;100.00
50867;BME280;36839;51.946;21.002;2023-03-21T01:09:15;99972.78;;;7.11;100.00
50867;BME280;36839;51.946;21.002;2023-03-21T01:11:44;99973.59;;;7.10;100.00
50867;BME280;36839;51.946;21.002;2023-03-21T01:14:16;99972.00;;;7.10;100.00
50867;BME280;36839;51.946;21.002;2023-03-21T01:16:46;99976.94;;;7.09;100.00
50867;BME280;36839;51.946;21.002;2023-03-21T01:19:16;99975.38;;;7.09;100.00
50867;BME280;36839;51.946;21.002;2023-03-21T01:21:54;99977.31;;;7.09;100.00
50867;BME280;36839;51.946;21.002;2023-03-21T01:24:30;99978.35;;;7.09;100.00
50867;BME280;36839;51.946;21.002;2023-03-21T01:27:02;99977.21;;;7.10;100.00
50867;BME280;36839;51.946;21.002;2023-03-21T01:29:34;99975.79;;;7.10;100.00
50867;BME280;36839;51.946;21.002;2023-03-21T01:32:05;99974.14;;;7.10;100.00
50867;BME280;36839;51.946;21.002;2023-03-21T01:34:33;99976.12;;;7.10;100.00
50867;BME280;36839;51.946;21.002;2023-03-21T01:37:00;99974.90;;;7.10;100.00
50867;BME280;36839;51.946;21.002;2023-03-21T01:39:29;99969.06;;;7.09;100.00
50867;BME280;36839;51.946;21.002;2023-03-21T01:41:59;99969.02;;;7.08;100.00
50867;BME280;36839;51.946;21.002;2023-03-21T01:44:27;99967.90;;;7.07;100.00
50867;BME280;36839;51.946;21.002;2023-03-21T01:46:57;99968.15;;;7.05;100.00
50867;BME280;36839;51.946;21.002;2023-03-21T01:49:39;99967.35;;;7.02;100.00
50867;BME280;36839;51.946;21.002;2023-03-21T01:52:13;99962.96;;;7.00;100.00
50867;BME280;36839;51.946;21.002;2023-03-21T01:54:42;99963.96;;;7.01;100.00
50867;BME280;36839;51.946;21.002;2023-03-21T01:57:31;99957.39;;;6.99;100.00
50867;BME280;36839;51.946;21.002;2023-03-21T02:00:03;99953.91;;;6.96;100.00
50867;BME280;36839;51.946;21.002;2023-03-21T02:02:42;99947.85;;;6.94;100.00
50867;BME280;36839;51.946;21.002;2023-03-21T02:05:32;99949.80;;;6.93;100.00
50867;BME280;36839;51.946;21.002;2023-03-21T02:08:04;99946.84;;;6.91;100.00
50867;BME280;36839;51.946;21.002;2023-03-21T02:10:46;99945.89;;;6.88;100.00
50867;BME280;36839;51.946;21.002;2023-03-21T02:13:18;99947.24;;;6.87;100.00
50867;BME280;36839;51.946;21.002;2023-03-21T02:15:58;99949.64;;;6.85;100.00
50867;BME280;36839;51.946;21.002;2023-03-21T02:27:21;99948.98;;;6.77;100.00
50867;BME280;36839;51.946;21.002;2023-03-21T02:29:55;99950.81;;;6.75;100.00
50867;BME280;36839;51.946;21.002;2023-03-21T02:33:17;99954.82;;;6.72;100.00
50867;BME280;36839;51.946;21.002;2023-03-21T02:41:15;99951.52;;;6.62;100.00
50867;BME280;36839;51.946;21.002;2023-03-21T02:47:18;99947.50;;;6.56;100.00
50867;BME280;36839;51.946;21.002;2023-03-21T02:49:59;99947.95;;;6.53;100.00
50867;BME280;36839;51.946;21.002;2023-03-21T02:52:35;99947.91;;;6.52;100.00
50867;BME280;36839;51.946;21.002;2023-03-21T02:55:05;99947.11;;;6.49;100.00
50867;BME280;36839;51.946;21.002;2023-03-21T02:57:44;99942.43;;;6.47;100.00
50867;BME280;36839;51.946;21.002;2023-03-21T03:00:19;99948.65;;;6.45;100.00
50867;BME280;36839;51.946;21.002;2023-03-21T03:02:51;99953.30;;;6.42;100.00
50867;BME280;36839;51.946;21.002;2023-03-21T03:05:27;99953.88;;;6.40;100.00
50867;BME280;36839;51.946;21.002;2023-03-21T03:08:13;99956.16;;;6.38;100.00
50867;BME280;36839;51.946;21.002;2023-03-21T03:11:02;99951.64;;;6.37;100.00
50867;BME280;36839;51.946;21.002;2023-03-21T03:16:42;99960.09;;;6.34;100.00
50867;BME280;36839;51.946;21.002;2023-03-21T03:19:25;99958.60;;;6.34;100.00
50867;BME280;36839;51.946;21.002;2023-03-21T03:22:04;99960.20;;;6.35;100.00
50867;BME280;36839;51.946;21.002;2023-03-21T03:27:29;99966.15;;;6.39;100.00
50867;BME280;36839;51.946;21.002;2023-03-21T03:30:00;99972.15;;;6.40;100.00
50867;BME280;36839;51.946;21.002;2023-03-21T03:32:35;99968.55;;;6.42;100.00
50867;BME280;36839;51.946;21.002;2023-03-21T03:35:04;99970.95;;;6.44;100.00
50867;BME280;36839;51.946;21.002;2023-03-21T03:37:34;99968.73;;;6.45;100.00
50867;BME280;36839;51.946;21.002;2023-03-21T03:40:14;99970.47;;;6.48;100.00
50867;BME280;36839;51.946;21.002;2023-03-21T03:42:48;99964.23;;;6.49;100.00
50867;BME280;36839;51.946;21.002;2023-03-21T03:45:27;99963.38;;;6.51;100.00
50867;BME280;36839;51.946;21.002;2023-03-21T03:48:17;99963.77;;;6.52;100.00
50867;BME280;36839;51.946;21.002;2023-03-21T03:50:53;99972.10;;;6.53;100.00
50867;BME280;36839;51.946;21.002;2023-03-21T03:53:33;99967.58;;;6.54;100.00
50867;BME280;36839;51.946;21.002;2023-03-21T03:56:06;99968.35;;;6.55;100.00
50867;BME280;36839;51.946;21.002;2023-03-21T03:58:37;99968.95;;;6.55;100.00
50867;BME280;36839;51.946;21.002;2023-03-21T04:01:08;99974.44;;;6.55;100.00
50867;BME280;36839;51.946;21.002;2023-03-21T04:03:40;99973.90;;;6.56;100.00
50867;BME280;36839;51.946;21.002;2023-03-21T04:06:10;99972.77;;;6.57;100.00
50867;BME280;36839;51.946;21.002;2023-03-21T04:08:37;99973.59;;;6.58;100.00
50867;BME280;36839;51.946;21.002;2023-03-21T04:11:09;99969.33;;;6.59;100.00
50867;BME280;36839;51.946;21.002;2023-03-21T04:13:38;99976.14;;;6.59;100.00
50867;BME280;36839;51.946;21.002;2023-03-21T04:16:08;99975.26;;;6.59;100.00
50867;BME280;36839;51.946;21.002;2023-03-21T04:18:37;99977.95;;;6.59;100.00
50867;BME280;36839;51.946;21.002;2023-03-21T04:21:12;99975.04;;;6.59;100.00
50867;BME280;36839;51.946;21.002;2023-03-21T04:23:47;99972.61;;;6.58;100.00
50867;BME280;36839;51.946;21.002;2023-03-21T04:26:17;99974.10;;;6.58;100.00
50867;BME280;36839;51.946;21.002;2023-03-21T04:28:50;99974.36;;;6.58;100.00
50867;BME280;36839;51.946;21.002;2023-03-21T04:31:22;99973.05;;;6.59;100.00
50867;BME280;36839;51.946;21.002;2023-03-21T04:33:55;99974.11;;;6.60;100.00
50867;BME280;36839;51.946;21.002;2023-03-21T04:36:24;99968.07;;;6.59;100.00
50867;BME280;36839;51.946;21.002;2023-03-21T04:38:53;99968.11;;;6.59;100.00
50867;BME280;36839;51.946;21.002;2023-03-21T04:41:20;99963.71;;;6.58;100.00
50867;BME280;36839;51.946;21.002;2023-03-21T04:43:51;99962.27;;;6.55;100.00
50867;BME280;36839;51.946;21.002;2023-03-21T04:46:18;99960.86;;;6.54;100.00
50867;BME280;36839;51.946;21.002;2023-03-21T04:48:45;99967.22;;;6.51;100.00
50867;BME280;36839;51.946;21.002;2023-03-21T04:51:15;99963.63;;;6.48;100.00
50867;BME280;36839;51.946;21.002;2023-03-21T04:53:50;99967.98;;;6.46;100.00
50867;BME280;36839;51.946;21.002;2023-03-21T04:56:18;99973.69;;;6.46;100.00
50867;BME280;36839;51.946;21.002;2023-03-21T04:58:47;99980.50;;;6.47;100.00
50867;BME280;36839;51.946;21.002;2023-03-21T05:01:14;99981.60;;;6.47;100.00
50867;BME280;36839;51.946;21.002;2023-03-21T05:03:47;99977.49;;;6.47;100.00
50867;BME280;36839;51.946;21.002;2023-03-21T05:06:13;99980.52;;;6.49;100.00
50867;BME280;36839;51.946;21.002;2023-03-21T05:08:43;99984.15;;;6.49;100.00
50867;BME280;36839;51.946;21.002;2023-03-21T05:11:10;99980.17;;;6.51;100.00
50867;BME280;36839;51.946;21.002;2023-03-21T05:13:41;99980.61;;;6.54;100.00
50867;BME280;36839;51.946;21.002;2023-03-21T05:16:08;99981.45;;;6.54;100.00
50867;BME280;36839;51.946;21.002;2023-03-21T05:18:36;99984.73;;;6.57;100.00
50867;BME280;36839;51.946;21.002;2023-03-21T05:21:06;99990.14;;;6.59;100.00
50867;BME280;36839;51.946;21.002;2023-03-21T05:23:36;99991.63;;;6.61;100.00
50867;BME280;36839;51.946;21.002;2023-03-21T05:26:08;99995.10;;;6.62;100.00
50867;BME280;36839;51.946;21.002;2023-03-21T05:28:42;99990.70;;;6.64;100.00
50867;BME280;36839;51.946;21.002;2023-03-21T05:31:17;99994.42;;;6.70;100.00
50867;BME280;36839;51.946;21.002;2023-03-21T05:33:45;99992.66;;;6.77;100.00
50867;BME280;36839;51.946;21.002;2023-03-21T05:36:15;99997.20;;;6.80;100.00
50867;BME280;36839;51.946;21.002;2023-03-21T05:38:45;99999.15;;;6.81;100.00
50867;BME280;36839;51.946;21.002;2023-03-21T05:41:13;100001.40;;;6.83;100.00
50867;BME280;36839;51.946;21.002;2023-03-21T05:43:41;99999.25;;;6.83;100.00
50867;BME280;36839;51.946;21.002;2023-03-21T05:46:09;100000.63;;;6.84;100.00
50867;BME280;36839;51.946;21.002;2023-03-21T05:48:36;100001.52;;;6.84;100.00
50867;BME280;36839;51.946;21.002;2023-03-21T05:51:05;100001.48;;;6.85;100.00
50867;BME280;36839;51.946;21.002;2023-03-21T05:53:34;100000.98;;;6.85;100.00
50867;BME280;36839;51.946;21.002;2023-03-21T05:56:01;100001.09;;;6.85;100.00
50867;BME280;36839;51.946;21.002;2023-03-21T05:58:29;100001.05;;;6.86;100.00
50867;BME280;36839;51.946;21.002;2023-03-21T06:00:56;100004.07;;;6.86;100.00
50867;BME280;36839;51.946;21.002;2023-03-21T06:03:26;100008.16;;;6.89;100.00
50867;BME280;36839;51.946;21.002;2023-03-21T06:05:58;100005.34;;;6.92;100.00
50867;BME280;36839;51.946;21.002;2023-03-21T06:08:25;100013.75;;;6.94;100.00
50867;BME280;36839;51.946;21.002;2023-03-21T06:10:52;100012.67;;;6.97;100.00
50867;BME280;36839;51.946;21.002;2023-03-21T06:13:18;100016.94;;;7.03;100.00
50867;BME280;36839;51.946;21.002;2023-03-21T06:15:55;100020.04;;;7.04;100.00
50867;BME280;36839;51.946;21.002;2023-03-21T06:18:25;100019.73;;;7.06;100.00
50867;BME280;36839;51.946;21.002;2023-03-21T06:20:54;100022.95;;;7.08;100.00
50867;BME280;36839;51.946;21.002;2023-03-21T06:23:23;100027.95;;;7.09;100.00
50867;BME280;36839;51.946;21.002;2023-03-21T06:25:50;100029.04;;;7.08;100.00
50867;BME280;36839;51.946;21.002;2023-03-21T06:28:17;100027.23;;;7.11;100.00
50867;BME280;36839;51.946;21.002;2023-03-21T06:30:44;100028.88;;;7.11;100.00
50867;BME280;36839;51.946;21.002;2023-03-21T06:33:11;100028.42;;;7.10;100.00
50867;BME280;36839;51.946;21.002;2023-03-21T06:35:40;100031.98;;;7.13;100.00
50867;BME280;36839;51.946;21.002;2023-03-21T06:38:07;100034.02;;;7.14;100.00
50867;BME280;36839;51.946;21.002;2023-03-21T06:40:34;100034.70;;;7.16;100.00
50867;BME280;36839;51.946;21.002;2023-03-21T06:43:02;100033.62;;;7.17;100.00
50867;BME280;36839;51.946;21.002;2023-03-21T06:45:30;100035.05;;;7.18;100.00
50867;BME280;36839;51.946;21.002;2023-03-21T06:47:59;100042.34;;;7.20;100.00
50867;BME280;36839;51.946;21.002;2023-03-21T06:50:26;100044.22;;;7.17;100.00
50867;BME280;36839;51.946;21.002;2023-03-21T06:52:56;100044.30;;;7.14;100.00
50867;BME280;36839;51.946;21.002;2023-03-21T06:55:27;100049.69;;;7.11;100.00
50867;BME280;36839;51.946;21.002;2023-03-21T06:57:56;100050.69;;;7.11;100.00
50867;BME280;36839;51.946;21.002;2023-03-21T07:00:27;100049.38;;;7.12;100.00
50867;BME280;36839;51.946;21.002;2023-03-21T07:02:57;100050.14;;;7.15;100.00
50867;BME280;36839;51.946;21.002;2023-03-21T07:05:27;100054.45;;;7.14;100.00
50867;BME280;36839;51.946;21.002;2023-03-21T07:07:56;100054.39;;;7.17;100.00
50867;BME280;36839;51.946;21.002;2023-03-21T07:10:30;100054.84;;;7.18;100.00
50867;BME280;36839;51.946;21.002;2023-03-21T07:12:59;100053.63;;;7.18;100.00
50867;BME280;36839;51.946;21.002;2023-03-21T07:15:29;100057.89;;;7.20;100.00
50867;BME280;36839;51.946;21.002;2023-03-21T07:17:57;100056.30;;;7.24;100.00
50867;BME280;36839;51.946;21.002;2023-03-21T07:20:24;100060.17;;;7.25;100.00
50867;BME280;36839;51.946;21.002;2023-03-21T07:22:54;100057.48;;;7.21;100.00
50867;BME280;36839;51.946;21.002;2023-03-21T07:25:22;100057.34;;;7.20;100.00
50867;BME280;36839;51.946;21.002;2023-03-21T07:27:52;100053.56;;;7.20;100.00
50867;BME280;36839;51.946;21.002;2023-03-21T07:30:21;100053.70;;;7.22;100.00
50867;BME280;36839;51.946;21.002;2023-03-21T07:32:49;100056.77;;;7.22;100.00
50867;BME280;36839;51.946;21.002;2023-03-21T07:35:19;100053.25;;;7.19;100.00
50867;BME280;36839;51.946;21.002;2023-03-21T07:37:46;100052.98;;;7.21;100.00
50867;BME280;36839;51.946;21.002;2023-03-21T07:40:19;100058.86;;;7.22;100.00
50867;BME280;36839;51.946;21.002;2023-03-21T07:42:48;100056.34;;;7.21;100.00
50867;BME280;36839;51.946;21.002;2023-03-21T07:45:21;100057.56;;;7.23;100.00
50867;BME280;36839;51.946;21.002;2023-03-21T07:47:52;100055.94;;;7.22;100.00
50867;BME280;36839;51.946;21.002;2023-03-21T07:50:21;100054.86;;;7.16;100.00
50867;BME280;36839;51.946;21.002;2023-03-21T07:52:51;100060.52;;;7.15;100.00
50867;BME280;36839;51.946;21.002;2023-03-21T07:55:21;100058.09;;;7.22;100.00
50867;BME280;36839;51.946;21.002;2023-03-21T07:57:49;100058.90;;;7.25;100.00
50867;BME280;36839;51.946;21.002;2023-03-21T08:00:21;100064.29;;;7.29;100.00
50867;BME280;36839;51.946;21.002;2023-03-21T08:02:52;100062.21;;;7.33;100.00
50867;BME280;36839;51.946;21.002;2023-03-21T08:05:25;100063.69;;;7.33;100.00
50867;BME280;36839;51.946;21.002;2023-03-21T08:08:13;100061.88;;;7.32;100.00
50867;BME280;36839;51.946;21.002;2023-03-21T08:10:44;100064.08;;;7.32;100.00
50867;BME280;36839;51.946;21.002;2023-03-21T08:13:23;100066.70;;;7.32;100.00
50867;BME280;36839;51.946;21.002;2023-03-21T08:15:51;100067.91;;;7.32;100.00
50867;BME280;36839;51.946;21.002;2023-03-21T08:18:20;100069.59;;;7.30;100.00
50867;BME280;36839;51.946;21.002;2023-03-21T08:20:53;100069.15;;;7.30;100.00
50867;BME280;36839;51.946;21.002;2023-03-21T08:23:22;100070.45;;;7.26;100.00
50867;BME280;36839;51.946;21.002;2023-03-21T08:25:52;100069.79;;;7.30;100.00
50867;BME280;36839;51.946;21.002;2023-03-21T08:28:27;100067.61;;;7.31;100.00
50867;BME280;36839;51.946;21.002;2023-03-21T08:30:55;100072.06;;;7.38;100.00
50867;BME280;36839;51.946;21.002;2023-03-21T08:33:24;100074.58;;;7.46;100.00
50867;BME280;36839;51.946;21.002;2023-03-21T08:35:51;100071.95;;;7.53;100.00
50867;BME280;36839;51.946;21.002;2023-03-21T08:38:21;100075.06;;;7.61;100.00
50867;BME280;36839;51.946;21.002;2023-03-21T08:40:49;100074.67;;;7.77;100.00
50867;BME280;36839;51.946;21.002;2023-03-21T08:43:22;100076.47;;;7.80;100.00
50867;BME280;36839;51.946;21.002;2023-03-21T08:45:53;100079.86;;;7.84;100.00
50867;BME280;36839;51.946;21.002;2023-03-21T08:48:21;100079.77;;;7.89;100.00
50867;BME280;36839;51.946;21.002;2023-03-21T08:50:50;100080.28;;;7.90;100.00
50867;BME280;36839;51.946;21.002;2023-03-21T08:53:20;100082.60;;;7.91;100.00
50867;BME280;36839;51.946;21.002;2023-03-21T08:55:51;100087.34;;;7.96;100.00
50867;BME280;36839;51.946;21.002;2023-03-21T08:58:18;100085.78;;;7.94;100.00
50867;BME280;36839;51.946;21.002;2023-03-21T09:00:46;100089.79;;;7.94;100.00
50867;BME280;36839;51.946;21.002;2023-03-21T09:03:13;100088.12;;;7.97;100.00
50867;BME280;36839;51.946;21.002;2023-03-21T09:05:43;100091.29;;;7.99;100.00
50867;BME280;36839;51.946;21.002;2023-03-21T09:08:12;100091.90;;;7.96;100.00
50867;BME280;36839;51.946;21.002;2023-03-21T09:10:39;100093.08;;;7.97;100.00
50867;BME280;36839;51.946;21.002;2023-03-21T09:13:07;100088.23;;;8.00;100.00
50867;BME280;36839;51.946;21.002;2023-03-21T09:15:37;100094.09;;;8.04;100.00
50867;BME280;36839;51.946;21.002;2023-03-21T09:18:07;100093.01;;;8.09;100.00
50867;BME280;36839;51.946;21.002;2023-03-21T09:20:45;100091.30;;;8.10;100.00
50867;BME280;36839;51.946;21.002;2023-03-21T09:23:14;100094.30;;;8.16;100.00
50867;BME280;36839;51.946;21.002;2023-03-21T09:25:46;100094.90;;;8.22;100.00
50867;BME280;36839;51.946;21.002;2023-03-21T09:28:13;100102.62;;;8.32;100.00
50867;BME280;36839;51.946;21.002;2023-03-21T09:30:44;100101.34;;;8.39;100.00
50867;BME280;36839;51.946;21.002;2023-03-21T09:33:14;100105.70;;;8.49;100.00
50867;BME280;36839;51.946;21.002;2023-03-21T09:35:49;100102.48;;;8.48;100.00
50867;BME280;36839;51.946;21.002;2023-03-21T09:38:17;100106.63;;;8.49;100.00
50867;BME280;36839;51.946;21.002;2023-03-21T09:47:00;100107.74;;;8.79;100.00
50867;BME280;36839;51.946;21.002;2023-03-21T09:49:19;100099.84;;;8.89;100.00
50867;BME280;36839;51.946;21.002;2023-03-21T09:51:57;100099.48;;;8.98;100.00
50867;BME280;36839;51.946;21.002;2023-03-21T09:54:30;100095.71;;;8.94;100.00
50867;BME280;36839;51.946;21.002;2023-03-21T09:59:51;100092.52;;;9.02;100.00
50867;BME280;36839;51.946;21.002;2023-03-21T10:02:41;100093.75;;;9.04;100.00
50867;BME280;36839;51.946;21.002;2023-03-21T10:05:27;100092.05;;;8.99;100.00
50867;BME280;36839;51.946;21.002;2023-03-21T10:08:04;100089.60;;;9.01;100.00
50867;BME280;36839;51.946;21.002;2023-03-21T10:10:38;100095.20;;;9.07;100.00
50867;BME280;36839;51.946;21.002;2023-03-21T10:13:39;100095.75;;;9.06;100.00
50867;BME280;36839;51.946;21.002;2023-03-21T10:16:28;100097.16;;;9.04;100.00
50867;BME280;36839;51.946;21.002;2023-03-21T10:18:55;100098.78;;;9.07;100.00
50867;BME280;36839;51.946;21.002;2023-03-21T10:21:27;100099.12;;;9.15;100.00
50867;BME280;36839;51.946;21.002;2023-03-21T10:23:59;100096.48;;;9.17;100.00
50867;BME280;36839;51.946;21.002;2023-03-21T10:26:28;100096.14;;;9.21;100.00
50867;BME280;36839;51.946;21.002;2023-03-21T10:29:00;100100.02;;;9.31;100.00
50867;BME280;36839;51.946;21.002;2023-03-21T10:31:33;100095.51;;;9.42;100.00
50867;BME280;36839;51.946;21.002;2023-03-21T10:34:18;100094.46;;;9.51;100.00
50867;BME280;36839;51.946;21.002;2023-03-21T10:36:49;100091.00;;;9.55;100.00
50867;BME280;36839;51.946;21.002;2023-03-21T10:39:36;100093.91;;;9.60;100.00
50867;BME280;36839;51.946;21.002;2023-03-21T10:42:20;100096.89;;;9.62;100.00
50867;BME280;36839;51.946;21.002;2023-03-21T10:44:54;100098.29;;;9.65;100.00
50867;BME280;36839;51.946;21.002;2023-03-21T10:47:29;100100.11;;;9.75;100.00
50867;BME280;36839;51.946;21.002;2023-03-21T10:50:04;100098.11;;;9.83;100.00
50867;BME280;36839;51.946;21.002;2023-03-21T10:52:32;100100.60;;;9.83;100.00
50867;BME280;36839;51.946;21.002;2023-03-21T10:58:03;100099.95;;;9.84;100.00
50867;BME280;36839;51.946;21.002;2023-03-21T11:00:40;100095.91;;;9.75;100.00
50867;BME280;36839;51.946;21.002;2023-03-21T11:03:39;100097.55;;;9.69;100.00
50867;BME280;36839;51.946;21.002;2023-03-21T11:06:45;100096.98;;;9.69;100.00
50867;BME280;36839;51.946;21.002;2023-03-21T11:09:23;100100.77;;;9.54;100.00
50867;BME280;36839;51.946;21.002;2023-03-21T11:11:54;100108.63;;;9.40;100.00
50867;BME280;36839;51.946;21.002;2023-03-21T11:14:48;100116.86;;;9.06;100.00
50867;BME280;36839;51.946;21.002;2023-03-21T11:20:07;100117.42;;;8.36;100.00
50867;BME280;36839;51.946;21.002;2023-03-21T11:22:39;100119.32;;;8.16;100.00
50867;BME280;36839;51.946;21.002;2023-03-21T11:25:19;100122.23;;;8.12;100.00
50867;BME280;36839;51.946;21.002;2023-03-21T11:27:52;100119.70;;;8.11;100.00
50867;BME280;36839;51.946;21.002;2023-03-21T11:30:26;100119.98;;;8.12;100.00
50867;BME280;36839;51.946;21.002;2023-03-21T11:33:00;100118.12;;;8.17;100.00
50867;BME280;36839;51.946;21.002;2023-03-21T11:35:35;100115.52;;;8.20;100.00
50867;BME280;36839;51.946;21.002;2023-03-21T11:38:04;100116.19;;;8.22;100.00
50867;BME280;36839;51.946;21.002;2023-03-21T11:40:35;100118.30;;;8.23;100.00
50867;BME280;36839;51.946;21.002;2023-03-21T11:43:05;100116.86;;;8.26;100.00
50867;BME280;36839;51.946;21.002;2023-03-21T11:46:06;100108.67;;;8.40;100.00
50867;BME280;36839;51.946;21.002;2023-03-21T11:48:40;100105.45;;;8.58;100.00
50867;BME280;36839;51.946;21.002;2023-03-21T11:57:49;100099.86;;;9.05;100.00
50867;BME280;36839;51.946;21.002;2023-03-21T12:00:29;100101.11;;;9.24;100.00
50867;BME280;36839;51.946;21.002;2023-03-21T12:03:54;100098.27;;;9.35;100.00
50867;BME280;36839;51.946;21.002;2023-03-21T12:06:01;100099.36;;;9.39;100.00
50867;BME280;36839;51.946;21.002;2023-03-21T12:12:37;100092.81;;;9.43;100.00
50867;BME280;36839;51.946;21.002;2023-03-21T12:15:26;100093.08;;;9.39;100.00
50867;BME280;36839;51.946;21.002;2023-03-21T12:25:34;100084.69;;;9.32;100.00
50867;BME280;36839;51.946;21.002;2023-03-21T12:36:40;100078.11;;;9.13;100.00
50867;BME280;36839;51.946;21.002;2023-03-21T12:41:44;100080.48;;;9.07;100.00
50867;BME280;36839;51.946;21.002;2023-03-21T12:44:20;100082.64;;;9.00;100.00
50867;BME280;36839;51.946;21.002;2023-03-21T12:46:58;100083.92;;;8.94;100.00
50867;BME280;36839;51.946;21.002;2023-03-21T12:49:36;100085.55;;;8.86;100.00
50867;BME280;36839;51.946;21.002;2023-03-21T12:52:20;100083.99;;;8.83;100.00
50867;BME280;36839;51.946;21.002;2023-03-21T12:55:20;100081.85;;;8.79;100.00
50867;BME280;36839;51.946;21.002;2023-03-21T12:57:46;100081.54;;;8.73;100.00
50867;BME280;36839;51.946;21.002;2023-03-21T13:00:19;100079.23;;;8.73;100.00
50867;BME280;36839;51.946;21.002;2023-03-21T13:03:15;100082.00;;;8.77;100.00
50867;BME280;36839;51.946;21.002;2023-03-21T13:06:00;100077.33;;;8.82;100.00
50867;BME280;36839;51.946;21.002;2023-03-21T13:09:01;100072.34;;;8.93;100.00
50867;BME280;36839;51.946;21.002;2023-03-21T13:11:42;100072.81;;;9.05;100.00
50867;BME280;36839;51.946;21.002;2023-03-21T13:14:19;100070.16;;;9.10;100.00
50867;BME280;36839;51.946;21.002;2023-03-21T13:17:09;100068.20;;;9.15;100.00
50867;BME280;36839;51.946;21.002;2023-03-21T13:19:42;100067.59;;;9.19;100.00
50867;BME280;36839;51.946;21.002;2023-03-21T13:22:25;100070.02;;;9.21;100.00
50867;BME280;36839;51.946;21.002;2023-03-21T13:25:19;100067.09;;;9.29;100.00
50867;BME280;36839;51.946;21.002;2023-03-21T13:28:02;100068.73;;;9.43;100.00
50867;BME280;36839;51.946;21.002;2023-03-21T13:30:36;100066.68;;;9.51;100.00
50867;BME280;36839;51.946;21.002;2023-03-21T13:33:14;100067.08;;;9.54;100.00
50867;BME280;36839;51.946;21.002;2023-03-21T13:35:56;100065.60;;;9.56;100.00
50867;BME280;36839;51.946;21.002;2023-03-21T13:38:40;100068.24;;;9.66;100.00
50867;BME280;36839;51.946;21.002;2023-03-21T13:41:41;100070.58;;;9.71;100.00
50867;BME280;36839;51.946;21.002;2023-03-21T13:46:58;100069.89;;;9.86;100.00
50867;BME280;36839;51.946;21.002;2023-03-21T13:49:36;100063.24;;;9.96;100.00
50867;BME280;36839;51.946;21.002;2023-03-21T13:54:50;100068.86;;;10.21;100.00
50867;BME280;36839;51.946;21.002;2023-03-21T13:57:36;100062.05;;;10.27;100.00
50867;BME280;36839;51.946;21.002;2023-03-21T14:03:00;100069.07;;;9.89;100.00
50867;BME280;36839;51.946;21.002;2023-03-21T14:05:33;100079.35;;;9.50;100.00
50867;BME280;36839;51.946;21.002;2023-03-21T14:08:06;100074.08;;;9.35;100.00
50867;BME280;36839;51.946;21.002;2023-03-21T14:10:41;100074.42;;;9.15;100.00
50867;BME280;36839;51.946;21.002;2023-03-21T14:13:15;100071.30;;;9.00;100.00
50867;BME280;36839;51.946;21.002;2023-03-21T14:15:47;100072.88;;;8.83;100.00
50867;BME280;36839;51.946;21.002;2023-03-21T14:18:21;100069.52;;;8.79;100.00
50867;BME280;36839;51.946;21.002;2023-03-21T14:20:55;100076.17;;;8.65;100.00
50867;BME280;36839;51.946;21.002;2023-03-21T14:23:29;100073.50;;;8.55;100.00
50867;BME280;36839;51.946;21.002;2023-03-21T14:26:00;100077.27;;;8.52;100.00
50867;BME280;36839;51.946;21.002;2023-03-21T14:28:29;100071.77;;;8.48;100.00
50867;BME280;36839;51.946;21.002;2023-03-21T14:31:11;100069.81;;;8.44;100.00